METAR Data
IDs: Format: Raw Decoded Include TAF

Data at: 1421 UTC 11 Dec 2018

KDFW 111353Z 19007KT 10SM SCT250 02/M01 A3031 RMK AO2 SLP263 T00221006
KDFW 111253Z 18006KT 10SM FEW250 02/M01 A3031 RMK AO2 SLP265 T00221011
KDFW 111153Z 18005KT 10SM FEW250 01/M01 A3031 RMK AO2 SLP265 T00111011 10050 20011 55007
KDFW 111053Z 19005KT 10SM FEW250 02/M01 A3030 RMK AO2 SLP262 T00221011
KDFW 110953Z 17003KT 10SM CLR 02/M01 A3032 RMK AO2 SLP266 T00171011
KDFW 110853Z 19005KT 10SM CLR 03/M01 A3033 RMK AO2 SLP270 T00331006 55001
KDFW 110753Z 21006KT 10SM CLR 03/M01 A3033 RMK AO2 SLP270 T00281011
KDFW 110653Z 18005KT 10SM CLR 04/M01 A3033 RMK AO2 SLP270 T00391006
KDFW 110553Z 19006KT 10SM CLR 05/M01 A3034 RMK AO2 SLP273 T00501006 10094 20044 401441011 51002
KDFW 110453Z 18007KT 10SM CLR 05/M01 A3034 RMK AO2 SLP272 T00501006
KDFW 110353Z 18007KT 10SM CLR 06/M01 A3034 RMK AO2 SLP273 T00611006
KDFW 110253Z 18006KT 10SM CLR 07/M01 A3033 RMK AO2 SLP272 T00671011 50006
KDFW 110153Z 17006KT 10SM CLR 08/M02 A3034 RMK AO2 SLP273 T00781022
KDFW 110053Z 17008KT 10SM CLR 09/M03 A3033 RMK AO2 SLP270 T00891028
KDFW 102353Z 17007KT 10SM FEW300 09/M04 A3031 RMK AO2 SLP266 T00941039 10144 20094 52000
KDFW 102253Z 17005KT 10SM CLR 12/M03 A3031 RMK AO2 SLP265 T01171033
KDFW 102153Z 00000KT 10SM CLR 13/M06 A3031 RMK AO2 SLP265 T01331056
KDFW 102053Z 00000KT 10SM CLR 13/M06 A3031 RMK AO2 SLP265 T01331061 56020
KDFW 101953Z 31006KT 10SM CLR 14/M04 A3032 RMK AO2 SLP267 T01391039
KDFW 101853Z 00000KT 10SM CLR 12/M03 A3035 RMK AO2 SLP276 T01171028
KDFW 101753Z 21005KT 10SM CLR 11/M02 A3037 RMK AO2 SLP285 T01061022 10106 21011 58003
KDFW 101653Z 00000KT 10SM CLR 09/M01 A3040 RMK AO2 SLP293 T00891006
KDFW 101553Z 00000KT 10SM FEW300 07/M01 A3039 RMK AO2 SLP291 T00721006
KDFW 101453Z 34004KT 10SM FEW180 FEW300 04/M01 A3038 RMK AO2 SLP289 T00441011 53015
KDFW 101353Z 00000KT 10SM FEW300 02/M02 A3036 RMK AO2 SLP283 T00171017
KDFW 101253Z 24006KT 10SM FEW300 01/M02 A3035 RMK AO2 SLP278 T00061022 $
KDFW 101153Z 27005KT 10SM CLR 01/M02 A3033 RMK AO2 SLP273 T00111022 10033 20000 53001 $
KDFW 101053Z 32006KT 10SM CLR 01/M02 A3033 RMK AO2 SLP271 T00111022 $
KDFW 100953Z 32005KT 10SM CLR 02/M02 A3033 RMK AO2 SLP270 T00171022 $
KDFW 100853Z 31006KT 10SM CLR 02/M02 A3033 RMK AO2 SLP271 T00221022 56006 $
KDFW 100753Z 29005KT 10SM CLR 03/M02 A3033 RMK AO2 SLP272 T00281022 $
KDFW 100653Z 30005KT 10SM FEW300 03/M02 A3034 RMK AO2 SLP275 T00331017 $
KDFW 100553Z 32008KT 10SM CLR 03/M01 A3035 RMK AO2 SLP278 T00331011 10078 20033 401000028 50003 $
KDFW 100453Z 32010KT 10SM CLR 04/M01 A3036 RMK AO2 SLP281 T00391011 $
KDFW 100353Z 31009KT 10SM CLR 05/M01 A3036 RMK AO2 SLP280 T00501011 $
KDFW 100253Z 32010KT 10SM CLR 06/M01 A3034 RMK AO2 SLP275 T00561011 51012 $